Time;durP1;ratioP1;P1;durP2;ratioP2;P2;SDS_P1;SDS_P2;PMS_P1;PMS_P2;Temp;Humidity;BMP_temperature;BMP_pressure;BME280_temperature;BME280_humidity;BME280_pressure;Samples;Min_cycle;Max_cycle;Signal;HPM_P1;HPM_P2
2021/07/03 00:00:37;;;;;;;8.35;6.35;;;21.80;99.90;;;;;;4995037;28;20379;-74
2021/07/03 00:03:03;;;;;;;6.85;5.75;;;21.80;99.90;;;;;;4994770;28;20097;-75
2021/07/03 00:05:28;;;;;;;8.45;6.68;;;21.80;99.90;;;;;;4992983;28;20026;-74
2021/07/03 00:07:55;;;;;;;8.40;5.80;;;21.80;99.90;;;;;;4994334;28;20029;-75
2021/07/03 00:10:21;;;;;;;6.32;5.63;;;21.80;99.90;;;;;;4994314;28;20027;-75
2021/07/03 00:12:48;;;;;;;8.63;6.38;;;21.80;99.90;;;;;;4998527;28;20048;-75
2021/07/03 00:15:21;;;;;;;8.52;6.70;;;21.70;99.90;;;;;;4994506;28;20029;-74
2021/07/03 00:17:50;;;;;;;6.55;5.82;;;21.80;99.90;;;;;;4994271;28;20045;-75
2021/07/03 00:20:16;;;;;;;7.18;5.85;;;21.80;99.90;;;;;;4994128;28;20117;-75
2021/07/03 00:22:42;;;;;;;6.88;5.45;;;21.80;99.90;;;;;;4994624;28;20037;-74
2021/07/03 00:25:08;;;;;;;7.72;5.75;;;21.80;99.90;;;;;;4994107;28;20031;-75
2021/07/03 00:27:34;;;;;;;6.07;5.28;;;21.70;99.90;;;;;;4994170;28;20030;-77
2021/07/03 00:30:00;;;;;;;7.00;5.47;;;21.70;99.90;;;;;;4994266;28;20022;-76
2021/07/03 00:32:26;;;;;;;7.45;5.78;;;21.70;99.90;;;;;;4994240;28;20038;-75
2021/07/03 00:34:51;;;;;;;6.82;6.13;;;21.70;99.90;;;;;;4993977;28;20097;-82
2021/07/03 00:37:17;;;;;;;7.57;5.78;;;21.70;99.90;;;;;;4993767;28;20491;-82
2021/07/03 00:39:43;;;;;;;6.20;5.60;;;21.70;99.90;;;;;;4994416;28;20057;-85
2021/07/03 00:42:09;;;;;;;7.15;5.68;;;21.70;99.90;;;;;;4994189;28;20057;-87
2021/07/03 00:44:38;;;;;;;7.45;5.43;;;21.70;99.90;;;;;;4993951;28;20055;-88
2021/07/03 00:47:06;;;;;;;6.75;6.05;;;21.70;99.90;;;;;;4993799;28;20041;-76
2021/07/03 00:49:32;;;;;;;8.52;5.72;;;21.70;99.90;;;;;;4993759;28;20026;-75
2021/07/03 00:51:58;;;;;;;6.38;5.78;;;21.70;99.90;;;;;;4993669;28;20418;-76
2021/07/03 00:54:24;;;;;;;6.60;5.68;;;21.70;99.90;;;;;;4994065;28;20475;-76
2021/07/03 00:57:12;;;;;;;6.40;5.70;;;21.80;99.90;;;;;;4993753;28;20037;-77
2021/07/03 00:59:39;;;;;;;8.93;6.15;;;21.70;99.90;;;;;;4993866;28;20042;-74
2021/07/03 01:02:06;;;;;;;6.72;5.63;;;21.70;99.90;;;;;;4994510;28;20411;-74
2021/07/03 01:04:33;;;;;;;7.50;5.68;;;21.80;99.90;;;;;;4993794;28;20428;-80
2021/07/03 01:06:59;;;;;;;7.60;5.78;;;21.70;99.90;;;;;;4993869;28;20026;-90
2021/07/03 01:09:25;;;;;;;6.88;5.90;;;21.80;99.90;;;;;;4993772;28;20542;-83
2021/07/03 01:11:51;;;;;;;6.20;5.60;;;21.80;99.90;;;;;;4993562;28;20030;-80
2021/07/03 01:14:18;;;;;;;7.38;5.78;;;21.70;99.90;;;;;;4992934;28;20521;-87
2021/07/03 01:16:45;;;;;;;7.70;6.57;;;21.70;99.90;;;;;;4993890;28;20064;-85
2021/07/03 01:19:10;;;;;;;6.95;6.25;;;21.70;99.90;;;;;;4993459;28;20040;-88
2021/07/03 01:21:37;;;;;;;7.05;5.70;;;21.70;99.90;;;;;;4993086;28;20030;-74
2021/07/03 01:24:03;;;;;;;6.60;5.55;;;21.70;99.90;;;;;;4993432;28;20376;-78
2021/07/03 01:26:43;;;;;;;9.15;6.32;;;21.70;99.90;;;;;;4992735;28;20034;-75
2021/07/03 01:29:09;;;;;;;8.75;6.70;;;21.70;99.90;;;;;;4974077;28;20023;-75
2021/07/03 01:31:35;;;;;;;9.18;6.38;;;21.70;99.90;;;;;;4974372;28;20151;-77
2021/07/03 01:34:01;;;;;;;6.57;5.70;;;21.70;99.90;;;;;;4981044;28;20019;-74
2021/07/03 01:36:27;;;;;;;7.22;5.93;;;21.70;99.90;;;;;;4993079;28;20110;-76
2021/07/03 01:38:53;;;;;;;7.10;6.20;;;21.70;99.90;;;;;;4993222;28;20102;-79
2021/07/03 01:41:18;;;;;;;5.95;5.35;;;21.70;99.90;;;;;;4992355;28;20526;-75
2021/07/03 01:43:44;;;;;;;6.30;5.47;;;21.70;99.90;;;;;;4993123;28;20387;-85
2021/07/03 01:46:09;;;;;;;6.40;5.78;;;21.70;99.90;;;;;;4992528;28;20030;-88
2021/07/03 01:48:35;;;;;;;6.97;6.28;;;21.70;99.90;;;;;;4992777;28;20062;-86
2021/07/03 01:51:01;;;;;;;5.90;5.30;;;21.70;99.90;;;;;;4992166;28;20081;-74
2021/07/03 01:53:27;;;;;;;6.82;5.90;;;21.70;99.90;;;;;;4991631;28;20026;-75
2021/07/03 01:55:53;;;;;;;7.03;6.00;;;21.70;99.90;;;;;;4993183;28;20438;-75
2021/07/03 01:58:24;;;;;;;6.70;6.00;;;21.60;99.90;;;;;;4991919;28;20028;-75
2021/07/03 02:00:53;;;;;;;6.80;5.45;;;21.70;99.90;;;;;;4992288;28;20038;-74
2021/07/03 02:03:19;;;;;;;6.75;6.03;;;21.60;99.90;;;;;;4991942;28;20077;-75
2021/07/03 02:05:46;;;;;;;7.88;6.20;;;21.60;99.90;;;;;;4992995;28;20564;-86
2021/07/03 02:08:12;;;;;;;7.25;5.82;;;21.70;99.90;;;;;;4992982;28;20026;-83
2021/07/03 02:10:38;;;;;;;7.32;6.38;;;21.60;99.90;;;;;;4993076;28;20030;-79
2021/07/03 02:13:04;;;;;;;6.28;5.43;;;21.70;99.90;;;;;;4993056;28;20093;-89
2021/07/03 02:15:29;;;;;;;6.57;5.40;;;21.70;99.90;;;;;;4992564;28;20029;-87
2021/07/03 02:17:55;;;;;;;6.38;5.57;;;21.60;99.90;;;;;;4991932;28;20117;-87
2021/07/03 02:20:21;;;;;;;6.40;5.80;;;21.60;99.90;;;;;;4991714;28;20065;-75
2021/07/03 02:22:47;;;;;;;6.13;5.53;;;21.60;99.90;;;;;;4989793;28;20121;-85
2021/07/03 02:25:13;;;;;;;6.50;5.85;;;21.60;99.90;;;;;;4992324;28;20101;-78
2021/07/03 02:27:40;;;;;;;6.35;5.32;;;21.60;99.90;;;;;;4992303;28;20560;-80
2021/07/03 02:30:08;;;;;;;7.28;5.93;;;21.60;99.90;;;;;;4992903;28;20026;-82
2021/07/03 02:32:34;;;;;;;6.97;5.22;;;21.60;99.90;;;;;;4992050;28;20117;-80
2021/07/03 02:35:00;;;;;;;7.57;5.85;;;21.60;99.90;;;;;;4991627;28;20443;-79
2021/07/03 02:37:25;;;;;;;7.53;5.38;;;21.60;99.90;;;;;;4991562;28;20031;-86
2021/07/03 02:39:51;;;;;;;8.68;6.65;;;21.60;99.90;;;;;;4992229;28;20018;-86
2021/07/03 02:42:17;;;;;;;6.65;5.95;;;21.60;99.90;;;;;;4992198;28;20083;-86
2021/07/03 02:44:42;;;;;;;7.97;5.47;;;21.60;99.90;;;;;;4993085;28;20507;-83
2021/07/03 02:47:08;;;;;;;5.88;5.28;;;21.60;99.90;;;;;;4991181;28;20034;-75
2021/07/03 02:49:34;;;;;;;6.57;5.65;;;21.60;99.90;;;;;;4991993;28;20053;-75
2021/07/03 02:51:59;;;;;;;6.55;5.40;;;21.60;99.90;;;;;;5005333;28;20529;-74
2021/07/03 02:54:25;;;;;;;6.60;5.72;;;21.60;99.90;;;;;;4990323;28;20487;-77
2021/07/03 02:56:50;;;;;;;6.57;5.93;;;21.60;99.90;;;;;;4991816;28;20034;-75
2021/07/03 02:59:16;;;;;;;5.75;5.15;;;21.60;99.90;;;;;;4991007;28;20022;-75
2021/07/03 03:01:42;;;;;;;7.05;6.00;;;21.50;99.90;;;;;;4989731;28;20092;-76
2021/07/03 03:04:08;;;;;;;8.68;5.78;;;21.60;99.90;;;;;;4992043;28;20109;-79
2021/07/03 03:06:33;;;;;;;8.07;6.13;;;21.60;99.90;;;;;;4992076;28;20031;-83
2021/07/03 03:08:59;;;;;;;7.32;5.53;;;21.60;99.90;;;;;;4992243;28;20102;-78
2021/07/03 03:11:25;;;;;;;6.03;5.13;;;21.60;99.90;;;;;;4991428;28;20070;-79
2021/07/03 03:13:50;;;;;;;6.78;5.50;;;21.60;99.90;;;;;;4991893;28;20146;-84
2021/07/03 03:16:16;;;;;;;5.78;5.18;;;21.60;99.90;;;;;;4991749;28;20101;-83
2021/07/03 03:18:41;;;;;;;7.40;6.00;;;21.60;99.90;;;;;;4992139;28;20498;-85
2021/07/03 03:21:07;;;;;;;7.50;5.47;;;21.60;99.90;;;;;;4991963;28;20517;-83
2021/07/03 03:23:33;;;;;;;6.38;5.55;;;21.50;99.90;;;;;;4992095;28;20438;-87
2021/07/03 03:25:58;;;;;;;6.70;5.57;;;21.60;99.90;;;;;;4991931;28;20026;-85
2021/07/03 03:28:24;;;;;;;6.82;5.70;;;21.50;99.90;;;;;;4990711;28;20031;-83
2021/07/03 03:30:49;;;;;;;8.65;5.43;;;21.50;99.90;;;;;;4991597;28;20041;-83
2021/07/03 03:33:15;;;;;;;5.70;5.10;;;21.50;99.90;;;;;;4991284;28;20218;-81
2021/07/03 03:35:41;;;;;;;5.57;4.95;;;21.50;99.90;;;;;;4991622;28;20483;-84
2021/07/03 03:38:06;;;;;;;6.32;5.55;;;21.50;99.90;;;;;;4992148;28;20034;-83
2021/07/03 03:40:35;;;;;;;6.38;5.38;;;21.50;99.90;;;;;;4990650;28;20101;-88
2021/07/03 03:43:00;;;;;;;5.97;4.78;;;21.50;99.90;;;;;;4991816;28;20018;-77
2021/07/03 03:45:26;;;;;;;6.45;5.53;;;21.50;99.90;;;;;;4990806;28;20026;-75
2021/07/03 03:47:52;;;;;;;8.45;5.32;;;21.50;99.90;;;;;;4991481;28;20026;-81
2021/07/03 03:50:17;;;;;;;5.57;5.07;;;21.50;99.90;;;;;;4991555;28;20030;-78
2021/07/03 03:52:43;;;;;;;6.47;5.75;;;21.50;99.90;;;;;;4972522;28;20031;-78
2021/07/03 03:55:09;;;;;;;6.57;5.47;;;21.50;99.90;;;;;;4990540;28;20062;-78
2021/07/03 03:57:34;;;;;;;7.18;5.65;;;21.50;99.90;;;;;;4991729;28;20520;-83
2021/07/03 04:00:00;;;;;;;5.60;4.60;;;21.50;99.90;;;;;;4991141;28;20105;-86
2021/07/03 04:02:27;;;;;;;5.80;5.15;;;21.50;99.90;;;;;;4991439;28;20102;-86
2021/07/03 04:04:53;;;;;;;6.28;5.53;;;21.50;99.90;;;;;;4991473;28;20506;-83
2021/07/03 04:07:20;;;;;;;5.95;4.97;;;21.50;99.90;;;;;;4991782;28;20043;-83
2021/07/03 04:09:46;;;;;;;7.15;5.68;;;21.40;99.90;;;;;;4991262;28;20073;-82
2021/07/03 04:12:13;;;;;;;6.13;5.03;;;21.50;99.90;;;;;;4992438;28;20035;-78
2021/07/03 04:14:39;;;;;;;7.13;5.07;;;21.50;99.90;;;;;;4994712;28;20142;-82
2021/07/03 04:17:04;;;;;;;6.20;5.05;;;21.50;99.90;;;;;;4995010;28;20030;-86
2021/07/03 04:19:31;;;;;;;6.18;4.90;;;21.50;99.90;;;;;;4994365;28;20033;-81
2021/07/03 04:21:57;;;;;;;5.50;4.85;;;21.40;99.90;;;;;;4994868;28;20019;-84
2021/07/03 04:24:23;;;;;;;6.18;5.45;;;21.40;99.90;;;;;;4994734;28;20041;-77
2021/07/03 04:26:48;;;;;;;5.18;4.65;;;21.40;99.90;;;;;;4994630;28;20027;-82
2021/07/03 04:29:14;;;;;;;5.95;5.10;;;21.40;99.90;;;;;;4994135;28;20036;-81
2021/07/03 04:31:40;;;;;;;6.18;5.03;;;21.40;99.90;;;;;;4994624;28;20176;-86
2021/07/03 04:34:06;;;;;;;7.72;5.82;;;21.40;99.90;;;;;;4993906;28;20034;-81
2021/07/03 04:36:31;;;;;;;5.93;4.97;;;21.50;99.90;;;;;;4994328;28;20034;-82
2021/07/03 04:38:57;;;;;;;5.95;5.03;;;21.40;99.90;;;;;;4994519;28;20395;-78
2021/07/03 04:41:23;;;;;;;5.80;5.20;;;21.40;99.90;;;;;;4993441;28;20019;-81
2021/07/03 04:43:49;;;;;;;6.65;5.35;;;21.40;99.90;;;;;;4994313;28;20065;-76
2021/07/03 04:46:14;;;;;;;7.80;5.45;;;21.40;99.90;;;;;;4994001;28;20018;-79
2021/07/03 04:48:40;;;;;;;6.25;5.25;;;21.40;99.90;;;;;;4994165;28;20026;-80
2021/07/03 04:51:05;;;;;;;5.88;5.28;;;21.40;99.90;;;;;;4993821;28;20022;-75
2021/07/03 04:53:31;;;;;;;6.13;5.53;;;21.40;99.90;;;;;;4992817;28;20105;-80
2021/07/03 04:55:57;;;;;;;5.72;5.03;;;21.40;99.90;;;;;;4993667;28;20027;-85
2021/07/03 04:58:22;;;;;;;7.07;5.78;;;21.40;99.90;;;;;;4992858;28;20491;-75
2021/07/03 05:00:48;;;;;;;8.25;5.60;;;21.40;99.90;;;;;;4992799;28;20117;-82
2021/07/03 05:03:14;;;;;;;7.70;5.32;;;21.40;99.90;;;;;;4993681;28;20031;-75
2021/07/03 05:05:39;;;;;;;5.22;4.53;;;21.40;99.90;;;;;;4993527;28;20100;-77
2021/07/03 05:08:05;;;;;;;5.93;5.32;;;21.40;99.90;;;;;;4993771;28;20105;-77
2021/07/03 05:10:31;;;;;;;6.85;5.38;;;21.40;99.90;;;;;;4993525;28;20046;-76
2021/07/03 05:12:56;;;;;;;5.55;4.90;;;21.40;99.90;;;;;;4993173;28;20510;-77
2021/07/03 05:15:23;;;;;;;5.53;4.72;;;21.40;99.90;;;;;;4992871;28;20031;-84
2021/07/03 05:17:49;;;;;;;5.40;4.90;;;21.40;99.90;;;;;;4993550;28;20039;-73
2021/07/03 05:20:16;;;;;;;5.80;5.18;;;21.40;99.90;;;;;;4993115;28;20015;-75
2021/07/03 05:22:42;;;;;;;5.30;4.60;;;21.40;99.90;;;;;;4992254;28;20030;-74
2021/07/03 05:25:09;;;;;;;6.03;5.10;;;21.40;99.90;;;;;;4992464;28;20030;-76
2021/07/03 05:27:34;;;;;;;5.53;4.45;;;21.40;99.90;;;;;;4993219;28;20030;-84
2021/07/03 05:30:00;;;;;;;6.32;4.97;;;21.40;99.90;;;;;;4992656;28;20562;-80
2021/07/03 05:32:26;;;;;;;6.95;5.18;;;21.40;99.90;;;;;;4992549;28;20074;-83
2021/07/03 05:34:51;;;;;;;5.80;5.20;;;21.40;99.90;;;;;;4993358;28;20033;-81
2021/07/03 05:37:17;;;;;;;5.53;4.70;;;21.40;99.90;;;;;;4993145;28;20092;-86
2021/07/03 05:39:43;;;;;;;5.93;4.88;;;21.40;99.90;;;;;;4994895;28;20022;-80
2021/07/03 05:42:08;;;;;;;6.47;5.07;;;21.40;99.90;;;;;;4995980;28;20076;-82
2021/07/03 05:44:34;;;;;;;7.45;4.72;;;21.40;99.90;;;;;;4993822;28;20037;-83
2021/07/03 05:46:59;;;;;;;6.28;5.15;;;21.40;99.90;;;;;;4993111;28;20038;-80
2021/07/03 05:49:25;;;;;;;5.70;5.05;;;21.40;99.90;;;;;;4992565;28;20519;-79
2021/07/03 05:51:51;;;;;;;6.50;5.47;;;21.40;99.90;;;;;;4992680;28;20041;-76
2021/07/03 05:54:17;;;;;;;5.18;4.68;;;21.40;99.90;;;;;;4992953;28;20113;-74
2021/07/03 05:56:43;;;;;;;6.60;4.95;;;21.40;99.90;;;;;;4992280;28;20026;-76
2021/07/03 05:59:09;;;;;;;5.38;4.70;;;21.40;99.90;;;;;;4990242;28;20029;-77
2021/07/03 06:01:35;;;;;;;4.93;4.45;;;21.40;99.90;;;;;;4992862;28;20084;-80
2021/07/03 06:04:00;;;;;;;6.32;4.78;;;21.40;99.90;;;;;;4992960;28;20097;-81
2021/07/03 06:06:26;;;;;;;5.40;4.90;;;21.40;99.90;;;;;;4992290;28;20406;-79
2021/07/03 06:08:52;;;;;;;5.07;4.57;;;21.40;99.90;;;;;;4992740;28;20065;-79
2021/07/03 06:11:17;;;;;;;7.72;4.78;;;21.40;99.90;;;;;;4991676;28;20050;-77
2021/07/03 06:13:43;;;;;;;5.07;4.45;;;21.40;99.90;;;;;;4992379;28;20102;-78
2021/07/03 06:16:09;;;;;;;7.25;3.97;;;21.40;99.90;;;;;;4991994;28;20442;-76
2021/07/03 06:18:35;;;;;;;4.93;4.40;;;21.40;99.90;;;;;;4992881;28;20026;-77
2021/07/03 06:21:01;;;;;;;6.25;4.70;;;21.40;99.90;;;;;;4992202;28;20421;-77
2021/07/03 06:23:27;;;;;;;5.55;4.65;;;21.40;99.90;;;;;;4992194;28;20034;-85
2021/07/03 06:25:54;;;;;;;4.80;4.28;;;21.50;99.90;;;;;;4991569;28;20046;-79
2021/07/03 06:28:19;;;;;;;4.57;4.05;;;21.40;99.90;;;;;;4991755;28;20490;-79
2021/07/03 06:30:45;;;;;;;5.53;4.75;;;21.50;99.90;;;;;;4991287;28;20032;-77
2021/07/03 06:33:12;;;;;;;6.15;4.72;;;21.50;99.90;;;;;;4991521;28;20038;-75
2021/07/03 06:35:37;;;;;;;6.00;4.38;;;21.50;99.90;;;;;;4991897;28;20030;-78
2021/07/03 06:38:04;;;;;;;5.40;4.60;;;21.50;99.90;;;;;;4992067;28;20034;-77
2021/07/03 06:40:30;;;;;;;4.35;3.95;;;21.60;99.90;;;;;;4991496;28;20026;-76
2021/07/03 06:42:57;;;;;;;6.22;5.05;;;21.50;99.90;;;;;;4991764;28;20398;-77
2021/07/03 06:45:23;;;;;;;5.65;4.70;;;21.60;99.90;;;;;;4991209;28;20027;-75
2021/07/03 06:47:48;;;;;;;6.70;4.13;;;21.60;99.90;;;;;;4991806;28;20033;-74
2021/07/03 06:50:14;;;;;;;5.50;4.53;;;21.70;99.90;;;;;;4990477;28;20022;-74
2021/07/03 06:52:40;;;;;;;8.20;4.40;;;21.70;99.90;;;;;;4991833;28;20491;-73
2021/07/03 06:55:06;;;;;;;5.05;4.03;;;21.60;99.90;;;;;;4994016;28;20383;-75
2021/07/03 06:57:32;;;;;;;11.23;4.43;;;21.70;99.90;;;;;;5001070;28;20116;-74
2021/07/03 06:59:57;;;;;;;5.70;4.35;;;21.70;99.90;;;;;;4992911;28;20173;-75
2021/07/03 07:02:23;;;;;;;8.00;4.88;;;21.70;99.90;;;;;;5009761;28;20088;-79
2021/07/03 07:04:49;;;;;;;4.47;3.65;;;21.70;99.90;;;;;;5010637;28;20030;-76
2021/07/03 07:07:14;;;;;;;7.47;4.28;;;21.70;99.90;;;;;;4992320;28;20077;-79
2021/07/03 07:09:40;;;;;;;5.30;4.13;;;21.70;99.90;;;;;;4991546;28;20018;-79
2021/07/03 07:12:07;;;;;;;12.43;8.95;;;21.70;99.90;;;;;;4988804;28;20053;-74
2021/07/03 07:14:32;;;;;;;33.50;23.98;;;21.70;99.90;;;;;;5005142;28;20342;-73
2021/07/03 07:16:58;;;;;;;49.28;41.35;;;21.80;99.90;;;;;;4989808;28;21415;-73
2021/07/03 07:19:24;;;;;;;41.72;35.42;;;21.80;99.90;;;;;;5004879;28;20020;-75
2021/07/03 07:21:50;;;;;;;32.80;24.90;;;21.80;99.90;;;;;;4989712;28;20022;-76
2021/07/03 07:24:16;;;;;;;25.63;22.08;;;21.80;99.90;;;;;;4989521;28;20022;-79
2021/07/03 07:26:42;;;;;;;25.83;22.75;;;21.90;99.90;;;;;;4989440;28;20441;-77
2021/07/03 07:29:08;;;;;;;24.77;20.83;;;21.90;99.90;;;;;;4989756;28;20030;-73
2021/07/03 07:31:34;;;;;;;24.30;19.88;;;21.90;99.90;;;;;;4990428;28;20125;-78
2021/07/03 07:34:00;;;;;;;25.02;19.40;;;22.00;99.90;;;;;;4991205;28;20106;-76
2021/07/03 07:36:26;;;;;;;20.65;17.48;;;22.00;99.90;;;;;;4991297;28;20061;-77
2021/07/03 07:38:51;;;;;;;22.08;16.27;;;22.00;99.90;;;;;;4990670;28;20026;-75
2021/07/03 07:41:18;;;;;;;24.80;17.35;;;22.00;99.90;;;;;;4990938;28;20038;-74
2021/07/03 07:43:44;;;;;;;21.98;15.15;;;22.00;99.90;;;;;;4990508;28;20494;-74
2021/07/03 07:46:10;;;;;;;18.50;13.32;;;22.10;99.90;;;;;;4986768;28;20034;-75
2021/07/03 07:48:35;;;;;;;17.58;15.38;;;22.10;99.90;;;;;;4993808;28;20018;-73
2021/07/03 07:51:01;;;;;;;18.30;13.90;;;22.10;99.90;;;;;;4993247;28;20088;-71
2021/07/03 07:53:31;;;;;;;19.50;13.75;;;22.10;99.90;;;;;;4993318;28;20494;-72
2021/07/03 07:55:57;;;;;;;15.13;13.13;;;22.10;99.90;;;;;;4993564;28;20030;-74
2021/07/03 07:58:24;;;;;;;20.15;12.52;;;22.10;99.90;;;;;;5008371;28;20402;-75
2021/07/03 08:00:50;;;;;;;18.67;13.02;;;22.20;99.90;;;;;;4991872;28;20519;-74
2021/07/03 08:03:15;;;;;;;17.67;12.77;;;22.20;99.90;;;;;;4993450;28;20015;-74
2021/07/03 08:05:43;;;;;;;16.13;11.82;;;22.20;99.90;;;;;;4993970;28;20142;-74
2021/07/03 08:08:09;;;;;;;14.13;12.18;;;22.20;99.90;;;;;;4994498;28;20026;-74
2021/07/03 08:10:35;;;;;;;12.13;10.65;;;22.20;99.90;;;;;;4994508;28;20113;-77
2021/07/03 08:13:02;;;;;;;11.50;9.88;;;22.20;99.90;;;;;;4996881;28;20084;-74
2021/07/03 08:15:28;;;;;;;14.38;9.50;;;22.30;99.90;;;;;;5005852;28;20543;-74
2021/07/03 08:17:54;;;;;;;15.35;8.90;;;22.30;99.90;;;;;;4994659;28;20030;-74
2021/07/03 08:20:22;;;;;;;11.55;8.93;;;22.30;99.90;;;;;;4994003;28;20508;-74
2021/07/03 08:22:50;;;;;;;11.38;9.13;;;22.30;99.90;;;;;;4994543;28;20030;-74
2021/07/03 08:25:18;;;;;;;11.02;8.02;;;22.30;99.90;;;;;;4993979;28;20040;-73
2021/07/03 08:27:44;;;;;;;11.40;8.45;;;22.40;99.90;;;;;;4992999;28;20049;-75
2021/07/03 08:30:11;;;;;;;12.10;7.93;;;22.40;99.90;;;;;;4994269;28;20034;-73
2021/07/03 08:32:36;;;;;;;12.48;8.48;;;22.40;99.90;;;;;;4994588;28;20030;-77
2021/07/03 08:35:03;;;;;;;12.23;8.25;;;22.40;99.90;;;;;;4994403;28;20027;-77
2021/07/03 08:37:28;;;;;;;10.15;8.40;;;22.40;99.90;;;;;;4994174;28;20033;-77
2021/07/03 08:39:54;;;;;;;9.48;7.72;;;22.50;99.90;;;;;;4994515;28;20104;-74
2021/07/03 08:42:19;;;;;;;9.20;7.53;;;22.40;99.90;;;;;;4994050;28;20072;-74
2021/07/03 08:44:47;;;;;;;11.40;7.38;;;22.50;99.90;;;;;;4994259;28;20444;-74
2021/07/03 08:47:15;;;;;;;9.43;6.82;;;22.50;99.90;;;;;;4994157;28;20391;-73
2021/07/03 08:49:42;;;;;;;9.75;7.28;;;22.50;99.90;;;;;;4994296;28;20675;-83
2021/07/03 08:52:08;;;;;;;8.70;6.55;;;22.50;99.90;;;;;;4993792;28;20081;-77
2021/07/03 08:54:33;;;;;;;7.72;6.57;;;22.50;99.90;;;;;;4994378;28;20120;-87
2021/07/03 08:57:00;;;;;;;8.75;6.40;;;22.50;99.90;;;;;;4993872;28;20475;-84
2021/07/03 08:59:29;;;;;;;10.75;7.25;;;22.50;99.90;;;;;;4993392;28;20037;-81
2021/07/03 09:01:58;;;;;;;9.02;6.70;;;22.50;99.90;;;;;;4993843;28;20038;-86
2021/07/03 09:04:52;;;;;;;7.28;6.57;;;22.60;99.90;;;;;;4993687;28;20033;-74
2021/07/03 09:07:19;;;;;;;11.18;5.57;;;22.60;99.90;;;;;;4985138;28;20035;-83
2021/07/03 09:09:55;;;;;;;9.15;7.25;;;22.60;99.90;;;;;;4993948;28;20113;-73
2021/07/03 09:12:48;;;;;;;7.57;6.85;;;22.60;99.90;;;;;;4993299;28;20117;-74
2021/07/03 09:15:17;;;;;;;7.53;5.95;;;22.60;99.90;;;;;;4991680;28;20035;-83
2021/07/03 09:17:49;;;;;;;9.65;6.30;;;22.60;99.90;;;;;;4993728;28;20053;-76
2021/07/03 09:20:41;;;;;;;8.30;6.10;;;22.70;99.90;;;;;;4992033;28;20029;-73
2021/07/03 09:23:13;;;;;;;8.60;6.25;;;22.70;99.90;;;;;;4991920;28;20035;-74
2021/07/03 09:25:42;;;;;;;8.40;6.45;;;22.70;99.90;;;;;;4993470;28;20022;-74
2021/07/03 09:28:42;;;;;;;9.63;6.68;;;22.70;99.90;;;;;;4993270;28;20468;-75
2021/07/03 09:31:10;;;;;;;6.68;5.93;;;22.70;99.90;;;;;;4970889;28;20050;-73
2021/07/03 09:33:38;;;;;;;7.68;6.20;;;22.70;99.90;;;;;;4993781;28;20026;-74
2021/07/03 09:36:08;;;;;;;7.40;6.13;;;22.70;99.90;;;;;;4993608;28;20019;-74
2021/07/03 09:38:33;;;;;;;7.97;6.00;;;22.70;99.90;;;;;;4993550;28;20073;-73
2021/07/03 09:41:06;;;;;;;7.35;6.20;;;22.70;99.90;;;;;;4993211;28;20022;-73
2021/07/03 09:43:32;;;;;;;7.20;5.82;;;22.70;99.90;;;;;;4992932;28;20398;-73
2021/07/03 09:45:59;;;;;;;6.85;5.88;;;22.70;99.90;;;;;;4992879;28;20030;-73
2021/07/03 09:48:24;;;;;;;6.50;5.80;;;22.70;99.90;;;;;;4992641;28;20022;-74
2021/07/03 09:50:50;;;;;;;8.50;6.18;;;22.80;99.90;;;;;;4992929;28;20040;-73
2021/07/03 09:53:16;;;;;;;6.60;6.00;;;22.70;99.90;;;;;;4992699;28;20030;-74
2021/07/03 09:55:42;;;;;;;8.90;6.47;;;22.70;99.90;;;;;;4992842;28;20549;-73
2021/07/03 09:58:09;;;;;;;8.30;5.70;;;22.70;99.90;;;;;;4991832;28;20510;-73
2021/07/03 10:00:37;;;;;;;6.47;5.88;;;22.70;99.90;;;;;;4992581;28;20035;-74
2021/07/03 10:03:07;;;;;;;10.02;6.32;;;22.70;99.90;;;;;;4992390;28;20084;-78
2021/07/03 10:05:38;;;;;;;8.30;5.72;;;22.70;99.90;;;;;;4992692;28;20026;-74
2021/07/03 10:08:07;;;;;;;9.32;5.80;;;22.70;99.90;;;;;;4992976;28;20033;-74
2021/07/03 10:10:35;;;;;;;6.70;5.95;;;22.70;99.90;;;;;;4992005;28;20026;-74
2021/07/03 10:13:16;;;;;;;8.02;6.20;;;22.80;99.90;;;;;;4992630;28;20226;-74
2021/07/03 10:15:42;;;;;;;6.63;5.63;;;22.80;99.90;;;;;;4992453;28;20030;-74
2021/07/03 10:18:15;;;;;;;8.30;6.10;;;22.80;99.90;;;;;;4990747;28;20569;-74
2021/07/03 10:20:43;;;;;;;6.65;5.97;;;22.80;99.90;;;;;;4991195;28;20049;-74
2021/07/03 10:23:10;;;;;;;7.57;6.05;;;22.80;99.90;;;;;;4991002;28;20023;-75
2021/07/03 10:25:39;;;;;;;6.63;5.80;;;22.80;99.90;;;;;;4994660;28;20569;-74
2021/07/03 10:28:08;;;;;;;9.45;5.78;;;22.80;99.90;;;;;;4992175;28;20092;-73
2021/07/03 10:30:36;;;;;;;8.45;6.30;;;22.80;99.90;;;;;;4991986;28;20534;-73
2021/07/03 10:33:04;;;;;;;8.45;6.30;;;22.90;99.90;;;;;;4991575;28;20105;-75
2021/07/03 10:35:53;;;;;;;8.55;6.53;;;22.90;99.90;;;;;;4991976;28;20024;-74
2021/07/03 10:38:27;;;;;;;8.95;6.28;;;22.90;99.90;;;;;;4991562;28;20022;-75
2021/07/03 10:40:55;;;;;;;8.40;6.63;;;22.90;99.90;;;;;;4992157;28;20022;-78
2021/07/03 10:43:22;;;;;;;7.70;6.57;;;22.90;99.90;;;;;;4991294;28;20113;-74
2021/07/03 10:45:52;;;;;;;9.18;6.45;;;22.90;99.90;;;;;;4992018;28;20494;-74
2021/07/03 10:48:22;;;;;;;7.85;6.60;;;22.90;99.90;;;;;;4991334;28;20026;-74
2021/07/03 10:50:49;;;;;;;13.05;7.28;;;22.90;99.90;;;;;;4991672;28;20033;-76
2021/07/03 10:53:29;;;;;;;7.88;6.95;;;22.90;99.90;;;;;;4991339;28;20026;-74
2021/07/03 10:56:09;;;;;;;9.38;7.28;;;22.90;99.90;;;;;;4989637;28;20026;-74
2021/07/03 10:58:37;;;;;;;10.05;6.65;;;22.90;99.90;;;;;;4991010;28;20101;-75
2021/07/03 11:01:08;;;;;;;8.90;6.65;;;22.90;99.90;;;;;;4990577;28;20036;-74
2021/07/03 11:03:45;;;;;;;6.50;5.85;;;22.90;99.90;;;;;;4971953;28;20027;-74
2021/07/03 11:06:13;;;;;;;8.77;6.65;;;22.80;99.90;;;;;;4971427;28;20023;-76
2021/07/03 11:08:39;;;;;;;10.75;6.32;;;22.80;99.90;;;;;;4985643;28;20022;-76
2021/07/03 11:11:09;;;;;;;9.13;6.63;;;22.80;99.90;;;;;;4991008;28;20077;-75
2021/07/03 11:13:35;;;;;;;8.00;5.82;;;22.80;99.90;;;;;;4990871;28;20509;-76
2021/07/03 11:16:02;;;;;;;10.30;6.57;;;22.80;99.90;;;;;;4989664;28;20094;-77
2021/07/03 11:18:30;;;;;;;7.07;6.35;;;22.80;99.90;;;;;;4989932;28;20403;-76
2021/07/03 11:21:01;;;;;;;10.63;6.82;;;22.80;99.90;;;;;;4990558;28;20606;-75
2021/07/03 11:23:26;;;;;;;7.35;6.22;;;22.80;99.90;;;;;;4993041;28;20408;-75
2021/07/03 11:25:53;;;;;;;9.00;6.80;;;22.80;99.90;;;;;;4991888;28;20030;-73
2021/07/03 11:28:22;;;;;;;7.47;5.82;;;22.80;99.90;;;;;;4992242;28;20026;-82
2021/07/03 11:30:59;;;;;;;8.43;6.10;;;22.80;99.90;;;;;;4992804;28;20112;-75
2021/07/03 11:33:36;;;;;;;7.78;6.43;;;22.80;99.90;;;;;;4993667;28;20066;-77
2021/07/03 11:36:05;;;;;;;11.48;7.22;;;22.80;99.90;;;;;;4993017;28;20053;-76
2021/07/03 11:38:32;;;;;;;11.13;7.38;;;22.90;99.90;;;;;;4993907;28;20517;-77
2021/07/03 11:41:02;;;;;;;9.90;7.70;;;22.90;99.90;;;;;;4993603;28;20124;-77
2021/07/03 11:43:29;;;;;;;11.27;8.10;;;23.00;99.90;;;;;;4992941;28;20654;-75
2021/07/03 11:45:55;;;;;;;9.90;6.80;;;23.00;99.90;;;;;;4993288;28;20061;-76
2021/07/03 11:48:23;;;;;;;7.60;6.78;;;23.00;99.90;;;;;;4993848;28;20023;-74
2021/07/03 11:50:58;;;;;;;8.40;7.07;;;23.10;99.90;;;;;;4993725;28;20030;-75
2021/07/03 11:53:31;;;;;;;8.88;6.28;;;23.10;99.90;;;;;;4993641;28;20456;-72
2021/07/03 11:55:59;;;;;;;8.35;6.35;;;23.20;99.90;;;;;;4993267;28;20105;-73
2021/07/03 11:58:35;;;;;;;8.52;6.50;;;23.20;99.90;;;;;;4992676;28;20061;-72
2021/07/03 12:01:06;;;;;;;9.07;6.55;;;23.20;99.90;;;;;;4477502;28;15053089;-72
2021/07/03 12:03:35;;;;;;;8.70;6.38;;;23.30;99.90;;;;;;4993426;28;20061;-72
2021/07/03 12:06:05;;;;;;;8.13;5.97;;;23.30;99.90;;;;;;4994310;28;20445;-73
2021/07/03 12:08:46;;;;;;;8.23;5.55;;;23.30;99.90;;;;;;4994525;28;20046;-74
2021/07/03 12:11:15;;;;;;;11.07;5.97;;;23.30;99.90;;;;;;4994038;28;20045;-74
2021/07/03 12:13:52;;;;;;;7.82;6.03;;;23.30;99.90;;;;;;4994705;28;20018;-72
2021/07/03 12:16:22;;;;;;;7.88;6.80;;;23.30;99.90;;;;;;4993175;28;20030;-73
2021/07/03 12:18:57;;;;;;;9.32;6.70;;;23.40;99.90;;;;;;5025399;28;20040;-73
2021/07/03 12:21:23;;;;;;;10.05;5.82;;;23.40;99.90;;;;;;4993703;28;20036;-72
2021/07/03 12:23:49;;;;;;;8.82;6.45;;;23.40;99.90;;;;;;4996031;28;20517;-74
2021/07/03 12:26:19;;;;;;;8.18;6.32;;;23.40;99.90;;;;;;4993678;28;20026;-71
2021/07/03 12:28:57;;;;;;;7.78;6.47;;;23.40;99.90;;;;;;4994274;28;20054;-72
2021/07/03 12:31:34;;;;;;;6.93;6.05;;;23.40;99.90;;;;;;4994198;28;20509;-72
2021/07/03 12:34:09;;;;;;;9.65;5.78;;;23.40;99.90;;;;;;4994088;28;20026;-73
2021/07/03 12:36:38;;;;;;;7.43;5.88;;;23.40;99.90;;;;;;4993772;28;20112;-73
2021/07/03 12:39:12;;;;;;;8.20;6.68;;;23.40;99.90;;;;;;4992495;28;20026;-72
2021/07/03 12:41:40;;;;;;;8.82;5.78;;;23.40;99.90;;;;;;4990746;28;20073;-75
2021/07/03 12:44:07;;;;;;;8.90;6.43;;;23.40;99.90;;;;;;4993073;28;20054;-79
2021/07/03 12:46:35;;;;;;;7.53;6.30;;;23.40;99.90;;;;;;4990167;28;20046;-74